KBLI/BLI METAR and TAF weather

Enter ICAO airport designator
Station Type Date Time Source
KBLI METAR 2019/10/18 05:53 UTC NOAA

KBLI 180553Z AUTO 18008KT 10SM FEW048 BKN060 12/06 A2968 RMK AO2 SLP058 60008 T01170061 10139 20111 51031


Station Type Date Time Source
KBLI Decoded METAR 2019/10/18 05:53 UTC NOAA

BELLINGHAM INTERNATIONAL AIRPORT, WA, United States (KBLI) 48-48N 122-32W 50M
Oct 18, 2019 - 01:53 AM EDT / 2019.10.18 0553 UTC
Wind: from the S (180 degrees) at 9 MPH (8 KT):0
Visibility: 10 mile(s):0
Sky conditions: mostly cloudy
Temperature: 53.1 F (11.7 C)
Dew Point: 43.0 F (6.1 C)
Relative Humidity: 68%
Pressure (altimeter): 29.68 in. Hg (1005 hPa)
Pressure tendency: 0.09 inches (3.1 hPa) higher than three hours ago
ob: KBLI 180553Z AUTO 18008KT 10SM FEW048 BKN060 12/06 A2968 RMK AO2 SLP058 60008 T01170061 10139 20111 51031
cycle: 6

Station Type Date Time Source
KBLI TAF 2019/10/18 06:24 UTC NOAA

TAF KBLI 180522Z 1806/1906 18010KT P6SM FEW030 BKN060
FM181400 17014G23KT 5SM -RA BR OVC020
FM182100 16007KT P6SM -RA OVC025

Example: see airport list